Time;durP1;ratioP1;P1;durP2;ratioP2;P2;SDS_P1;SDS_P2;PMS_P1;PMS_P2;Temp;Humidity;BMP_temperature;BMP_pressure;BME280_temperature;BME280_humidity;BME280_pressure;Samples;Min_cycle;Max_cycle;Signal;HPM_P1;HPM_P2
2021/07/17 00:01:38;;;;;;;9.45;5.40;;;19.20;99.90;;;;;;4953206;29;20376;-81
2021/07/17 00:04:04;;;;;;;6.57;5.05;;;19.10;99.90;;;;;;4954489;29;20520;-81
2021/07/17 00:06:31;;;;;;;7.47;5.25;;;19.20;99.90;;;;;;4954247;29;20019;-81
2021/07/17 00:08:57;;;;;;;7.95;5.40;;;19.10;99.90;;;;;;4937003;29;20544;-81
2021/07/17 00:11:23;;;;;;;7.28;4.97;;;19.10;99.90;;;;;;4954290;29;20028;-81
2021/07/17 00:13:49;;;;;;;5.72;4.72;;;19.10;99.90;;;;;;4954181;29;20023;-81
2021/07/17 00:16:16;;;;;;;9.20;5.53;;;19.10;99.90;;;;;;4953905;28;20429;-81
2021/07/17 00:18:42;;;;;;;8.38;5.05;;;19.10;99.90;;;;;;4954003;29;20555;-81
2021/07/17 00:21:08;;;;;;;7.07;5.10;;;19.10;99.90;;;;;;4952600;29;20114;-81
2021/07/17 00:23:33;;;;;;;6.70;5.20;;;19.00;99.90;;;;;;4953778;29;20038;-81
2021/07/17 00:25:59;;;;;;;8.57;5.15;;;19.00;99.90;;;;;;4953721;29;20388;-81
2021/07/17 00:28:28;;;;;;;9.60;5.82;;;18.90;99.90;;;;;;4954198;29;20050;-81
2021/07/17 00:30:54;;;;;;;8.32;5.40;;;18.90;99.90;;;;;;4954056;28;20121;-81
2021/07/17 00:33:19;;;;;;;8.18;4.95;;;18.90;99.90;;;;;;4953207;28;20063;-81
2021/07/17 00:35:45;;;;;;;8.52;5.28;;;18.90;99.90;;;;;;4954075;28;20542;-81
2021/07/17 00:38:12;;;;;;;9.38;5.82;;;18.80;99.90;;;;;;4953784;28;20019;-81
2021/07/17 00:40:38;;;;;;;6.50;5.22;;;18.80;99.90;;;;;;4953991;29;20043;-81
2021/07/17 00:43:04;;;;;;;6.75;5.03;;;18.70;99.90;;;;;;4953420;28;20027;-81
2021/07/17 00:45:30;;;;;;;9.25;5.10;;;18.70;99.90;;;;;;4953652;29;20029;-81
2021/07/17 00:47:56;;;;;;;8.98;5.55;;;18.70;99.90;;;;;;4953722;29;20023;-81
2021/07/17 00:50:22;;;;;;;10.57;5.60;;;18.70;99.90;;;;;;4953808;29;20295;-81
2021/07/17 00:52:48;;;;;;;6.70;5.20;;;18.60;99.90;;;;;;4953453;29;20027;-81
2021/07/17 00:55:15;;;;;;;6.80;5.40;;;18.60;99.90;;;;;;4953519;29;20035;-81
2021/07/17 00:57:42;;;;;;;8.52;5.72;;;18.60;99.90;;;;;;4953889;29;20539;-81
2021/07/17 01:00:10;;;;;;;5.97;4.88;;;18.60;99.90;;;;;;4953142;29;20038;-81
2021/07/17 01:02:51;;;;;;;7.30;5.30;;;18.60;99.90;;;;;;4953583;29;20506;-81
2021/07/17 01:05:18;;;;;;;8.10;6.13;;;18.50;99.90;;;;;;4953132;29;20030;-81
2021/07/17 01:07:45;;;;;;;9.02;5.68;;;18.60;99.90;;;;;;4953335;29;20480;-81
2021/07/17 01:10:12;;;;;;;7.95;5.30;;;18.60;99.90;;;;;;4953016;29;20035;-81
2021/07/17 01:12:37;;;;;;;10.07;5.47;;;18.50;99.90;;;;;;4953959;29;20020;-81
2021/07/17 01:15:04;;;;;;;6.32;5.35;;;18.50;99.90;;;;;;4953655;29;20047;-81
2021/07/17 01:17:31;;;;;;;8.43;5.57;;;18.50;99.90;;;;;;4952504;29;20046;-81
2021/07/17 01:19:56;;;;;;;11.88;6.13;;;18.50;99.90;;;;;;4952996;28;20455;-81
2021/07/17 01:22:22;;;;;;;8.55;5.35;;;18.40;99.90;;;;;;4952814;29;20098;-81
2021/07/17 01:24:48;;;;;;;10.15;6.18;;;18.40;99.90;;;;;;4939699;28;20693;-81
2021/07/17 01:27:17;;;;;;;6.65;5.65;;;18.40;99.90;;;;;;4952752;28;20388;-81
2021/07/17 01:29:44;;;;;;;7.22;5.80;;;18.40;99.90;;;;;;4952933;29;20093;-81
2021/07/17 01:32:09;;;;;;;10.10;5.50;;;18.40;99.90;;;;;;4953039;29;20019;-81
2021/07/17 01:34:35;;;;;;;7.40;5.18;;;18.30;99.90;;;;;;4953123;29;20515;-81
2021/07/17 01:37:01;;;;;;;7.07;5.80;;;18.30;99.90;;;;;;4952799;29;20035;-81
2021/07/17 01:39:27;;;;;;;8.27;5.25;;;18.20;99.90;;;;;;4952577;29;20412;-81
2021/07/17 01:41:52;;;;;;;8.13;5.63;;;18.20;99.90;;;;;;4953037;29;20032;-81
2021/07/17 01:44:18;;;;;;;8.60;5.90;;;18.20;99.90;;;;;;4952742;29;20023;-81
2021/07/17 01:46:45;;;;;;;7.65;5.63;;;18.20;99.90;;;;;;4952382;29;20023;-81
2021/07/17 01:49:11;;;;;;;6.95;5.47;;;18.10;99.90;;;;;;4952511;29;20388;-81
2021/07/17 01:51:37;;;;;;;8.40;6.10;;;18.20;99.90;;;;;;4934810;29;20042;-81
2021/07/17 01:54:02;;;;;;;6.75;5.50;;;18.10;99.90;;;;;;4951120;29;20030;-81
2021/07/17 01:56:28;;;;;;;7.40;5.57;;;18.10;99.90;;;;;;4952216;29;20512;-81
2021/07/17 01:58:54;;;;;;;8.00;5.60;;;18.10;99.90;;;;;;4952550;29;20027;-81
2021/07/17 02:01:21;;;;;;;7.28;5.25;;;18.00;99.90;;;;;;4952351;29;20027;-81
2021/07/17 02:03:48;;;;;;;7.05;5.40;;;18.10;99.90;;;;;;4952200;29;20015;-81
2021/07/17 02:06:23;;;;;;;11.80;5.57;;;18.00;99.90;;;;;;4952609;29;20035;-80
2021/07/17 02:08:49;;;;;;;7.25;5.32;;;18.00;99.90;;;;;;4952116;29;20023;-81
2021/07/17 02:11:15;;;;;;;9.07;4.88;;;18.00;99.90;;;;;;4950805;29;20504;-81
2021/07/17 02:13:41;;;;;;;7.13;5.20;;;17.90;99.90;;;;;;4935244;29;20082;-81
2021/07/17 02:16:06;;;;;;;7.22;5.30;;;17.90;99.90;;;;;;4952813;29;20023;-81
2021/07/17 02:18:34;;;;;;;7.70;4.50;;;17.90;99.90;;;;;;4951965;29;20087;-80
2021/07/17 02:21:00;;;;;;;7.03;5.00;;;17.90;99.90;;;;;;4952247;28;20110;-81
2021/07/17 02:23:27;;;;;;;7.22;5.20;;;17.90;99.90;;;;;;4952061;29;20114;-81
2021/07/17 02:25:53;;;;;;;7.95;4.45;;;17.90;99.90;;;;;;4951997;28;20396;-81
2021/07/17 02:28:20;;;;;;;7.40;4.80;;;17.90;99.90;;;;;;4952123;28;20027;-81
2021/07/17 02:30:47;;;;;;;5.75;4.32;;;17.90;99.90;;;;;;4951828;29;20054;-81
2021/07/17 02:33:13;;;;;;;6.97;4.38;;;17.80;99.90;;;;;;4951628;29;20023;-81
2021/07/17 02:35:39;;;;;;;7.78;4.75;;;17.80;99.90;;;;;;4951834;29;20034;-81
2021/07/17 02:38:05;;;;;;;6.97;4.25;;;17.80;99.90;;;;;;4951567;29;20030;-81
2021/07/17 02:40:31;;;;;;;5.60;4.80;;;17.80;99.90;;;;;;4951404;29;20031;-81
2021/07/17 02:42:56;;;;;;;7.68;4.80;;;17.80;99.90;;;;;;4951881;29;20034;-81
2021/07/17 02:45:22;;;;;;;5.53;4.93;;;17.80;99.90;;;;;;4952249;29;20051;-81
2021/07/17 02:47:48;;;;;;;6.13;4.90;;;17.70;99.90;;;;;;4952113;29;20031;-81
2021/07/17 02:50:14;;;;;;;6.65;4.97;;;17.70;99.90;;;;;;4934261;29;20118;-81
2021/07/17 02:52:40;;;;;;;6.90;4.85;;;17.70;99.90;;;;;;4951714;29;20074;-81
2021/07/17 02:55:10;;;;;;;6.30;4.72;;;17.70;99.90;;;;;;4948612;29;20028;-81
2021/07/17 02:57:36;;;;;;;5.93;4.80;;;17.70;99.90;;;;;;4925090;29;20027;-81
2021/07/17 03:00:07;;;;;;;9.57;5.28;;;17.70;99.90;;;;;;4951663;29;20035;-81
2021/07/17 03:02:33;;;;;;;5.18;4.68;;;17.70;99.90;;;;;;4951472;29;20019;-81
2021/07/17 03:04:59;;;;;;;7.45;5.07;;;17.60;99.90;;;;;;4951424;29;20515;-81
2021/07/17 03:07:24;;;;;;;8.20;4.82;;;17.60;99.90;;;;;;4951516;29;20019;-81
2021/07/17 03:09:50;;;;;;;7.97;5.30;;;17.60;99.90;;;;;;4951446;29;20039;-81
2021/07/17 03:12:16;;;;;;;10.07;4.88;;;17.60;99.90;;;;;;4951366;29;20012;-81
2021/07/17 03:14:42;;;;;;;6.85;4.97;;;17.60;99.90;;;;;;4951544;29;20027;-81
2021/07/17 03:17:08;;;;;;;6.60;4.68;;;17.60;99.90;;;;;;4933955;29;20047;-81
2021/07/17 03:19:34;;;;;;;6.90;5.05;;;17.50;99.90;;;;;;4951238;28;20016;-81
2021/07/17 03:22:00;;;;;;;9.45;4.78;;;17.50;99.90;;;;;;4934054;29;20169;-81
2021/07/17 03:24:25;;;;;;;6.03;4.93;;;17.50;99.90;;;;;;4951241;29;20288;-81
2021/07/17 03:26:51;;;;;;;5.75;4.47;;;17.50;99.90;;;;;;4951320;29;20094;-81
2021/07/17 03:29:16;;;;;;;8.15;4.88;;;17.40;99.90;;;;;;4951023;28;20532;-81
2021/07/17 03:31:43;;;;;;;7.10;4.72;;;17.40;99.90;;;;;;4951343;28;20107;-81
2021/07/17 03:34:09;;;;;;;8.75;4.70;;;17.40;99.90;;;;;;4951324;29;20028;-84
2021/07/17 03:36:35;;;;;;;7.20;5.38;;;17.40;99.90;;;;;;4950970;29;20045;-83
2021/07/17 03:39:01;;;;;;;6.97;4.68;;;17.30;99.90;;;;;;4951217;29;20030;-83
2021/07/17 03:41:26;;;;;;;5.63;4.43;;;17.40;99.90;;;;;;4951137;29;20027;-83
2021/07/17 03:43:52;;;;;;;5.30;4.80;;;17.30;99.90;;;;;;4951033;29;20027;-84
2021/07/17 03:46:17;;;;;;;6.38;4.60;;;17.30;99.90;;;;;;4951059;29;20030;-83
2021/07/17 03:48:43;;;;;;;6.85;5.03;;;17.30;99.90;;;;;;4951510;29;20019;-83
2021/07/17 03:51:09;;;;;;;5.65;4.50;;;17.20;99.90;;;;;;4953817;28;20031;-83
2021/07/17 03:53:35;;;;;;;5.18;4.22;;;17.30;99.90;;;;;;4954625;29;20435;-83
2021/07/17 03:56:00;;;;;;;5.57;4.45;;;17.30;99.90;;;;;;4954691;29;20106;-84
2021/07/17 03:58:26;;;;;;;6.65;4.70;;;17.20;99.90;;;;;;4952057;29;20673;-83
2021/07/17 04:00:52;;;;;;;5.45;4.38;;;17.30;99.90;;;;;;4943874;29;20078;-83
2021/07/17 04:03:18;;;;;;;7.00;4.95;;;17.20;99.90;;;;;;4954769;29;20039;-84
2021/07/17 04:05:43;;;;;;;8.15;4.85;;;17.20;99.90;;;;;;4953310;29;20567;-83
2021/07/17 04:08:09;;;;;;;7.47;5.25;;;17.10;99.90;;;;;;4954471;29;20027;-83
2021/07/17 04:10:35;;;;;;;8.45;4.82;;;17.10;99.90;;;;;;4954198;29;20110;-83
2021/07/17 04:13:04;;;;;;;5.72;4.63;;;17.20;99.90;;;;;;4954366;29;20031;-83
2021/07/17 04:15:31;;;;;;;8.82;5.10;;;17.10;99.90;;;;;;4954023;29;20396;-81
2021/07/17 04:17:56;;;;;;;8.30;5.05;;;17.20;99.90;;;;;;4953023;28;20499;-81
2021/07/17 04:20:22;;;;;;;8.32;5.05;;;17.10;99.90;;;;;;4953008;29;20081;-81
2021/07/17 04:22:48;;;;;;;6.82;5.00;;;17.10;99.90;;;;;;4953009;28;20023;-81
2021/07/17 04:25:14;;;;;;;7.97;5.43;;;17.10;99.90;;;;;;4952751;29;20508;-81
2021/07/17 04:27:40;;;;;;;8.30;5.47;;;17.10;99.90;;;;;;4952948;29;20019;-81
2021/07/17 04:30:07;;;;;;;12.50;5.40;;;17.10;99.90;;;;;;4953364;29;20067;-81
2021/07/17 04:32:33;;;;;;;5.53;4.65;;;17.10;99.90;;;;;;4953036;29;20118;-81
2021/07/17 04:34:59;;;;;;;7.25;5.40;;;17.10;99.90;;;;;;4935304;29;20403;-81
2021/07/17 04:37:24;;;;;;;6.47;5.25;;;17.10;99.90;;;;;;4952792;29;20031;-81
2021/07/17 04:39:51;;;;;;;7.10;5.57;;;17.10;99.90;;;;;;4952587;29;20500;-81
2021/07/17 04:42:18;;;;;;;10.45;5.70;;;17.10;99.90;;;;;;4952664;29;20681;-81
2021/07/17 04:44:44;;;;;;;7.28;5.40;;;17.00;99.90;;;;;;4963595;29;20023;-81
2021/07/17 04:47:11;;;;;;;7.63;5.15;;;17.10;99.90;;;;;;4969938;29;20028;-80
2021/07/17 04:49:37;;;;;;;6.30;5.63;;;17.10;99.90;;;;;;4969605;29;20027;-80
2021/07/17 04:52:03;;;;;;;9.27;6.18;;;17.10;99.90;;;;;;4958317;29;20503;-81
2021/07/17 04:54:29;;;;;;;9.07;5.55;;;17.10;99.90;;;;;;4949088;29;20019;-81
2021/07/17 04:56:54;;;;;;;11.57;6.00;;;17.10;99.90;;;;;;4958686;29;20028;-81
2021/07/17 04:59:20;;;;;;;10.52;5.20;;;17.10;99.90;;;;;;4939195;29;20090;-80
2021/07/17 05:01:46;;;;;;;8.27;5.30;;;17.10;99.90;;;;;;4951293;28;20035;-81
2021/07/17 05:04:11;;;;;;;8.02;5.63;;;17.10;99.90;;;;;;4952508;29;20071;-80
2021/07/17 05:06:38;;;;;;;7.57;5.55;;;17.10;99.90;;;;;;4952125;29;20035;-81
2021/07/17 05:09:04;;;;;;;10.98;5.55;;;17.10;99.90;;;;;;4952422;29;20038;-81
2021/07/17 05:11:30;;;;;;;10.40;5.78;;;17.10;99.90;;;;;;4952260;29;20042;-81
2021/07/17 05:13:56;;;;;;;8.23;5.60;;;17.10;99.90;;;;;;4951932;29;20066;-81
2021/07/17 05:16:22;;;;;;;11.65;5.80;;;17.20;99.90;;;;;;4951896;29;20452;-81
2021/07/17 05:18:48;;;;;;;7.55;5.05;;;17.20;99.90;;;;;;4912813;28;1177641;-81
2021/07/17 05:21:15;;;;;;;12.68;5.25;;;17.30;99.90;;;;;;4952955;28;20399;-81
2021/07/17 05:23:42;;;;;;;10.10;5.70;;;17.20;99.90;;;;;;4952941;28;20019;-81
2021/07/17 05:26:07;;;;;;;8.13;5.90;;;17.30;99.90;;;;;;4952732;29;20147;-83
2021/07/17 05:28:33;;;;;;;7.53;5.25;;;17.40;99.90;;;;;;4952542;28;20455;-83
2021/07/17 05:30:58;;;;;;;10.88;5.35;;;17.40;99.90;;;;;;4952767;29;20039;-83
2021/07/17 05:33:24;;;;;;;10.80;6.03;;;17.50;99.90;;;;;;4953016;29;20019;-83
2021/07/17 05:35:50;;;;;;;8.43;5.78;;;17.50;99.90;;;;;;4953171;29;20508;-83
2021/07/17 05:38:15;;;;;;;6.80;5.25;;;17.60;99.90;;;;;;4952801;29;20260;-83
2021/07/17 05:40:41;;;;;;;7.28;5.95;;;17.60;99.90;;;;;;4953415;29;20061;-83
2021/07/17 05:43:07;;;;;;;15.48;6.85;;;17.60;99.90;;;;;;4935430;29;20031;-80
2021/07/17 05:45:33;;;;;;;8.18;5.70;;;17.60;99.90;;;;;;4952752;29;20110;-81
2021/07/17 05:47:58;;;;;;;17.40;6.18;;;17.60;99.90;;;;;;4951259;29;20400;-81
2021/07/17 05:50:24;;;;;;;10.07;6.38;;;17.60;99.90;;;;;;4952762;29;20031;-81
2021/07/17 05:52:50;;;;;;;11.38;6.43;;;17.70;99.90;;;;;;4952715;29;20111;-81
2021/07/17 05:55:15;;;;;;;13.82;6.03;;;17.70;99.90;;;;;;4952496;29;20027;-80
2021/07/17 05:57:41;;;;;;;10.98;6.28;;;17.80;99.90;;;;;;4952673;29;20243;-81
2021/07/17 06:00:08;;;;;;;14.80;6.40;;;17.90;99.90;;;;;;4952653;29;20400;-81
2021/07/17 06:02:34;;;;;;;9.65;6.15;;;17.90;99.90;;;;;;4952277;29;20023;-80
2021/07/17 06:05:00;;;;;;;12.73;6.85;;;18.00;99.90;;;;;;4952042;29;20038;-81
2021/07/17 06:07:25;;;;;;;9.35;6.05;;;18.00;99.90;;;;;;4952069;29;20019;-81
2021/07/17 06:09:51;;;;;;;11.68;6.63;;;18.10;99.90;;;;;;4952188;29;20043;-81
2021/07/17 06:12:17;;;;;;;12.68;6.95;;;18.20;99.90;;;;;;4952016;29;20025;-81
2021/07/17 06:14:43;;;;;;;14.15;6.68;;;18.20;99.90;;;;;;4952058;28;20090;-81
2021/07/17 06:17:11;;;;;;;10.38;6.70;;;18.20;99.90;;;;;;4952161;29;20074;-81
2021/07/17 06:19:46;;;;;;;8.85;6.65;;;18.20;99.90;;;;;;4952180;28;20023;-81
2021/07/17 06:22:12;;;;;;;11.10;6.13;;;18.30;99.90;;;;;;4934514;29;20403;-83
2021/07/17 06:24:38;;;;;;;10.20;6.72;;;18.40;99.90;;;;;;4950357;29;20030;-83
2021/07/17 06:27:08;;;;;;;11.88;6.85;;;18.40;99.90;;;;;;4952054;28;20078;-83
2021/07/17 06:29:34;;;;;;;12.10;6.40;;;18.50;99.90;;;;;;4951816;29;20086;-82
2021/07/17 06:32:00;;;;;;;13.57;6.68;;;18.50;99.90;;;;;;4934736;29;20446;-82
2021/07/17 06:34:26;;;;;;;12.07;7.13;;;18.60;99.90;;;;;;4951999;29;20105;-81
2021/07/17 06:36:51;;;;;;;11.73;6.70;;;18.60;99.90;;;;;;4951830;29;20030;-82
2021/07/17 06:39:17;;;;;;;13.90;6.75;;;18.70;99.90;;;;;;4952121;29;20055;-81
2021/07/17 06:41:43;;;;;;;12.27;6.82;;;18.70;99.90;;;;;;4951605;29;20098;-81
2021/07/17 06:44:09;;;;;;;14.95;7.18;;;18.80;99.90;;;;;;4951825;29;20135;-81
2021/07/17 06:46:34;;;;;;;12.90;6.93;;;18.90;99.90;;;;;;4951806;29;20552;-81
2021/07/17 06:49:00;;;;;;;15.73;6.55;;;19.00;99.90;;;;;;4951838;29;20148;-82
2021/07/17 06:51:26;;;;;;;13.13;6.90;;;19.10;99.90;;;;;;4951483;29;20067;-81
2021/07/17 06:53:52;;;;;;;10.75;6.82;;;19.20;99.90;;;;;;4951871;29;20023;-81
2021/07/17 06:56:17;;;;;;;14.68;7.30;;;19.20;99.90;;;;;;4950634;29;20109;-82
2021/07/17 06:58:43;;;;;;;16.05;6.70;;;19.30;99.90;;;;;;4951562;29;20020;-81
2021/07/17 07:01:09;;;;;;;15.90;6.63;;;19.40;99.90;;;;;;4951663;29;20043;-82
2021/07/17 07:03:35;;;;;;;11.68;6.30;;;19.50;99.90;;;;;;4951397;29;20020;-81
2021/07/17 07:06:01;;;;;;;15.35;7.30;;;19.60;99.90;;;;;;4951679;29;20036;-83
2021/07/17 07:08:26;;;;;;;14.82;6.93;;;19.60;99.90;;;;;;4934028;29;20027;-83
2021/07/17 07:10:52;;;;;;;15.27;7.10;;;19.70;99.90;;;;;;4951459;29;20051;-84
2021/07/17 07:13:18;;;;;;;13.57;6.97;;;19.80;99.90;;;;;;4951582;29;20476;-83
2021/07/17 07:15:45;;;;;;;12.55;6.60;;;19.80;99.90;;;;;;4951028;29;20019;-84
2021/07/17 07:18:13;;;;;;;15.00;6.72;;;19.90;99.90;;;;;;4951155;29;20047;-83
2021/07/17 07:20:39;;;;;;;18.15;7.13;;;19.90;99.90;;;;;;4951367;29;20301;-84
2021/07/17 07:23:05;;;;;;;19.48;6.43;;;19.90;99.90;;;;;;4951021;28;20247;-84
2021/07/17 07:25:31;;;;;;;14.68;6.38;;;20.00;99.90;;;;;;4952772;28;20571;-84
2021/07/17 07:27:57;;;;;;;16.80;6.78;;;20.10;99.90;;;;;;4953540;29;20027;-84
2021/07/17 07:30:23;;;;;;;14.63;6.53;;;20.20;99.90;;;;;;4954776;29;20155;-83
2021/07/17 07:32:49;;;;;;;16.20;6.70;;;20.20;99.90;;;;;;4953345;29;20015;-83
2021/07/17 07:35:16;;;;;;;18.88;7.25;;;20.30;99.90;;;;;;4954834;28;20184;-84
2021/07/17 07:37:42;;;;;;;9.93;6.22;;;20.30;99.90;;;;;;4954464;28;20102;-84
2021/07/17 07:40:08;;;;;;;14.65;6.30;;;20.40;99.90;;;;;;4937633;29;20106;-83
2021/07/17 07:42:34;;;;;;;15.07;5.90;;;20.50;99.90;;;;;;4954783;29;20074;-83
2021/07/17 07:44:59;;;;;;;15.43;6.30;;;20.60;99.90;;;;;;4954717;29;20027;-83
2021/07/17 07:47:25;;;;;;;14.63;6.80;;;20.60;99.90;;;;;;4954873;29;20378;-84
2021/07/17 07:49:54;;;;;;;15.45;6.30;;;20.70;99.90;;;;;;4954465;29;20038;-84
2021/07/17 07:52:20;;;;;;;11.75;5.78;;;20.70;99.90;;;;;;4954370;29;20028;-84
2021/07/17 07:54:46;;;;;;;16.27;6.07;;;20.80;99.90;;;;;;4954528;29;20027;-84
2021/07/17 07:57:12;;;;;;;16.17;6.00;;;20.90;99.90;;;;;;4954471;29;20023;-83
2021/07/17 07:59:38;;;;;;;14.55;6.30;;;21.00;99.90;;;;;;4954890;29;20118;-84
2021/07/17 08:02:04;;;;;;;11.88;5.60;;;21.00;99.90;;;;;;4954318;29;20482;-84
2021/07/17 08:04:30;;;;;;;15.70;6.00;;;21.10;99.90;;;;;;4953356;29;20080;-84
2021/07/17 08:06:56;;;;;;;13.68;6.45;;;21.20;99.90;;;;;;4954296;29;20030;-84
2021/07/17 08:09:22;;;;;;;13.05;5.95;;;21.20;99.90;;;;;;4954380;29;20399;-84
2021/07/17 08:11:47;;;;;;;16.33;7.10;;;21.20;99.90;;;;;;4936991;29;20106;-83
2021/07/17 08:14:13;;;;;;;19.52;6.65;;;21.30;99.90;;;;;;4954155;29;20062;-84
2021/07/17 08:16:39;;;;;;;15.18;6.15;;;21.30;99.90;;;;;;4954034;29;20106;-84
2021/07/17 08:19:05;;;;;;;16.25;6.20;;;21.30;99.90;;;;;;4953848;29;20031;-84
2021/07/17 08:21:31;;;;;;;12.60;6.05;;;21.40;99.90;;;;;;4953938;28;20030;-84
2021/07/17 08:23:56;;;;;;;16.00;6.53;;;21.50;99.90;;;;;;4954037;28;20027;-84
2021/07/17 08:26:22;;;;;;;12.35;6.30;;;21.60;99.90;;;;;;4953782;28;20241;-84
2021/07/17 08:28:48;;;;;;;13.57;6.35;;;21.60;99.90;;;;;;4953829;28;20023;-84
2021/07/17 08:31:14;;;;;;;15.45;6.68;;;21.70;99.90;;;;;;4953982;28;20066;-86
2021/07/17 08:33:40;;;;;;;18.00;6.93;;;21.70;99.90;;;;;;4953947;29;20031;-86
2021/07/17 08:36:06;;;;;;;11.20;5.95;;;21.80;99.90;;;;;;4953446;28;20023;-86
2021/07/17 08:38:32;;;;;;;16.15;6.57;;;21.90;99.90;;;;;;4953763;29;20106;-86
2021/07/17 08:40:58;;;;;;;18.88;6.38;;;21.90;99.90;;;;;;4953798;29;20035;-86
2021/07/17 08:43:25;;;;;;;16.50;6.57;;;21.90;99.90;;;;;;4953487;29;20384;-86
2021/07/17 08:45:51;;;;;;;16.75;6.60;;;21.90;99.90;;;;;;4936241;29;20035;-86
2021/07/17 08:48:21;;;;;;;17.98;7.00;;;22.00;99.90;;;;;;4953353;29;20023;-86
2021/07/17 08:50:47;;;;;;;15.50;6.10;;;22.20;99.90;;;;;;4953799;29;20306;-86
2021/07/17 08:53:16;;;;;;;11.52;5.30;;;22.30;99.90;;;;;;4953449;29;20019;-86
2021/07/17 08:55:41;;;;;;;15.18;6.38;;;22.40;99.90;;;;;;4953894;29;20023;-86
2021/07/17 08:58:07;;;;;;;10.77;6.10;;;22.40;99.90;;;;;;4936202;29;20026;-86
2021/07/17 09:00:36;;;;;;;16.58;6.20;;;22.50;99.90;;;;;;4953386;29;20147;-87
2021/07/17 09:03:05;;;;;;;14.82;6.68;;;22.60;99.90;;;;;;4953300;29;20133;-86
2021/07/17 09:05:35;;;;;;;16.83;6.60;;;22.70;99.90;;;;;;4953110;29;20446;-86
2021/07/17 09:08:02;;;;;;;14.02;6.40;;;22.70;99.90;;;;;;4953355;29;20020;-87
2021/07/17 09:10:41;;;;;;;18.80;6.57;;;22.80;99.90;;;;;;4952960;29;20066;-87
2021/07/17 09:13:16;;;;;;;10.73;5.32;;;22.90;99.90;;;;;;4953076;29;20019;-87
2021/07/17 09:15:49;;;;;;;14.57;5.68;;;22.90;99.90;;;;;;4952834;29;20034;-86
2021/07/17 09:18:25;;;;;;;15.23;5.88;;;22.90;99.90;;;;;;4952773;28;20513;-87
2021/07/17 09:21:22;;;;;;;15.30;5.38;;;23.00;99.90;;;;;;4951359;29;20031;-87
2021/07/17 09:23:58;;;;;;;11.43;5.53;;;23.20;99.90;;;;;;4951569;29;20137;-86
2021/07/17 09:26:30;;;;;;;14.73;6.15;;;23.20;99.90;;;;;;4952740;28;20026;-85
2021/07/17 09:28:58;;;;;;;17.05;6.05;;;23.20;99.90;;;;;;4952914;29;20043;-85
2021/07/17 09:31:27;;;;;;;13.00;5.72;;;23.30;99.90;;;;;;4952264;28;20389;-96
2021/07/17 09:34:11;;;;;;;11.40;5.57;;;23.30;99.90;;;;;;4953635;29;20023;-95
2021/07/17 09:36:49;;;;;;;;;;;23.20;99.90;;;;;;4953700;29;20023;-85
2021/07/17 09:39:19;;;;;;;12.55;5.72;;;23.30;99.90;;;;;;4952913;29;20422;-86
2021/07/17 09:41:59;;;;;;;13.35;6.00;;;23.20;99.90;;;;;;4953747;29;20023;-85
2021/07/17 09:44:26;;;;;;;16.48;5.78;;;23.40;99.90;;;;;;4948796;29;20043;-85
2021/07/17 09:46:52;;;;;;;11.32;5.70;;;23.40;99.90;;;;;;4951983;29;20413;-87
2021/07/17 09:49:20;;;;;;;12.73;5.60;;;23.40;99.90;;;;;;4953209;28;20035;-85
2021/07/17 09:51:47;;;;;;;16.92;5.53;;;23.40;99.90;;;;;;4952764;29;20038;-85
2021/07/17 09:54:13;;;;;;;12.73;5.65;;;23.50;99.90;;;;;;4953214;29;20027;-84
2021/07/17 09:56:42;;;;;;;9.48;5.13;;;23.50;99.90;;;;;;4952855;29;20024;-84
2021/07/17 09:59:13;;;;;;;12.32;4.97;;;23.60;99.90;;;;;;4953070;29;20093;-85
2021/07/17 10:01:40;;;;;;;11.95;5.43;;;23.70;99.90;;;;;;4935371;29;20038;-84
2021/07/17 10:04:08;;;;;;;11.63;5.22;;;23.60;99.90;;;;;;4952302;29;20652;-84
2021/07/17 10:06:35;;;;;;;12.70;4.95;;;23.70;99.90;;;;;;4952251;29;20027;-87
2021/07/17 10:09:23;;;;;;;11.48;4.85;;;23.80;99.90;;;;;;4952220;29;20067;-87
2021/07/17 10:11:59;;;;;;;9.52;4.88;;;23.90;99.90;;;;;;4952219;29;20035;-87
2021/07/17 10:14:33;;;;;;;10.88;5.63;;;24.00;99.90;;;;;;4952317;29;20038;-86
2021/07/17 10:17:16;;;;;;;13.02;5.28;;;24.20;99.90;;;;;;4951861;29;20114;-85
2021/07/17 10:19:42;;;;;;;14.05;5.55;;;24.20;99.90;;;;;;4951902;28;20043;-86
2021/07/17 10:22:10;;;;;;;10.82;5.32;;;24.40;99.90;;;;;;4952139;28;20075;-86
2021/07/17 10:24:37;;;;;;;13.45;5.05;;;24.40;99.90;;;;;;4951885;29;20106;-86
2021/07/17 10:27:04;;;;;;;9.35;4.68;;;24.30;99.90;;;;;;4952163;28;20114;-85
2021/07/17 10:29:30;;;;;;;11.23;4.65;;;24.40;99.90;;;;;;4951718;29;20146;-86
2021/07/17 10:31:57;;;;;;;13.05;5.03;;;24.50;99.90;;;;;;4952266;29;20110;-85
2021/07/17 10:34:23;;;;;;;10.57;5.15;;;24.60;99.90;;;;;;4951907;29;20062;-86
2021/07/17 10:37:05;;;;;;;15.60;4.68;;;24.70;99.90;;;;;;4951863;29;20027;-88
2021/07/17 10:39:34;;;;;;;12.68;5.03;;;24.80;99.90;;;;;;4951711;29;20019;-86
2021/07/17 10:42:09;;;;;;;10.50;5.30;;;24.80;99.90;;;;;;4952205;29;20027;-86
2021/07/17 10:44:39;;;;;;;12.70;5.03;;;24.90;99.90;;;;;;4951681;29;20400;-86
2021/07/17 10:47:07;;;;;;;11.93;4.43;;;25.00;99.90;;;;;;4951875;29;20612;-86
2021/07/17 10:49:39;;;;;;;12.32;4.18;;;25.10;99.90;;;;;;4951801;29;20110;-86
2021/07/17 10:52:06;;;;;;;9.10;4.32;;;25.20;99.90;;;;;;4950989;29;20827;-91
2021/07/17 10:54:32;;;;;;;9.90;4.43;;;25.20;99.90;;;;;;4951167;29;20027;-89
2021/07/17 10:56:59;;;;;;;11.77;4.35;;;25.20;99.90;;;;;;4950928;29;20033;-87
2021/07/17 10:59:25;;;;;;;12.13;4.82;;;25.30;99.40;;;;;;4951032;28;20032;-85
2021/07/17 11:01:56;;;;;;;14.80;5.05;;;25.40;99.70;;;;;;4954955;29;20419;-87
2021/07/17 11:04:35;;;;;;;10.80;4.30;;;25.40;99.70;;;;;;4954545;29;20019;-85
2021/07/17 11:07:16;;;;;;;12.38;4.80;;;25.50;99.50;;;;;;4955240;29;20069;-87
2021/07/17 11:10:17;;;;;;;12.35;5.00;;;25.60;99.20;;;;;;4955100;29;20109;-86
2021/07/17 11:12:55;;;;;;;8.50;4.85;;;25.60;99.00;;;;;;4952997;29;20035;-92
2021/07/17 11:15:21;;;;;;;10.60;4.47;;;25.70;99.60;;;;;;4954460;29;20047;-87
2021/07/17 11:17:51;;;;;;;7.50;3.90;;;25.90;98.90;;;;;;4953163;29;20075;-88
2021/07/17 11:20:38;;;;;;;10.98;4.38;;;25.90;98.40;;;;;;4936947;29;20428;-87
2021/07/17 11:23:17;;;;;;;10.05;3.70;;;26.00;98.20;;;;;;4952438;29;20106;-89
2021/07/17 11:25:57;;;;;;;9.23;3.60;;;26.10;98.10;;;;;;4954929;29;20015;-87
2021/07/17 11:28:46;;;;;;;9.98;4.20;;;26.30;97.80;;;;;;4937841;29;20038;-87
2021/07/17 11:31:27;;;;;;;15.70;4.32;;;26.40;97.50;;;;;;4937642;29;20046;-87
2021/07/17 11:34:17;;;;;;;8.25;4.07;;;26.60;97.00;;;;;;4937475;29;20035;-87
2021/07/17 11:36:45;;;;;;;9.20;3.90;;;26.70;97.10;;;;;;4937662;29;20050;-88
2021/07/17 11:39:13;;;;;;;13.40;4.07;;;26.60;97.30;;;;;;4954909;29;20031;-87
2021/07/17 11:41:39;;;;;;;9.20;4.40;;;26.70;97.20;;;;;;4955101;29;20022;-87
2021/07/17 11:44:06;;;;;;;9.40;3.75;;;26.70;96.80;;;;;;4954868;29;20027;-88
2021/07/17 11:46:33;;;;;;;11.77;4.47;;;26.90;96.70;;;;;;4954900;29;20016;-87
2021/07/17 11:49:10;;;;;;;10.77;4.13;;;26.90;96.20;;;;;;4954758;29;20039;-87
2021/07/17 11:51:51;;;;;;;9.95;4.03;;;27.00;96.70;;;;;;4954563;29;20073;-88
2021/07/17 11:54:40;;;;;;;10.88;4.20;;;27.10;96.20;;;;;;4954551;29;20158;-87
2021/07/17 11:57:26;;;;;;;8.95;4.13;;;27.10;96.00;;;;;;4954772;29;20031;-88
2021/07/17 11:59:54;;;;;;;8.30;3.80;;;27.30;96.40;;;;;;4954511;29;20019;-87
2021/07/17 12:02:22;;;;;;;15.32;4.43;;;27.40;95.40;;;;;;4954900;29;20031;-89
2021/07/17 12:04:49;;;;;;;14.65;4.30;;;27.50;95.60;;;;;;4937064;29;20520;-88
2021/07/17 12:07:30;;;;;;;9.95;4.03;;;27.60;94.70;;;;;;4954266;29;20028;-87
2021/07/17 12:10:02;;;;;;;19.05;5.45;;;27.60;95.40;;;;;;4954291;29;20522;-87
2021/07/17 12:12:31;;;;;;;8.70;4.22;;;27.70;95.30;;;;;;4954033;28;20027;-88
2021/07/17 12:15:08;;;;;;;7.28;3.83;;;27.80;95.20;;;;;;4954201;29;20027;-87
2021/07/17 12:17:36;;;;;;;9.63;3.92;;;28.00;94.80;;;;;;4936988;29;20724;-87
2021/07/17 12:20:15;;;;;;;10.18;4.50;;;28.10;94.60;;;;;;4954044;29;20034;-88
2021/07/17 12:22:45;;;;;;;12.85;4.55;;;28.20;94.20;;;;;;4954098;29;20075;-87
2021/07/17 12:25:16;;;;;;;9.52;3.90;;;28.30;94.00;;;;;;4953888;29;20431;-88
2021/07/17 12:27:52;;;;;;;10.45;3.90;;;28.40;93.40;;;;;;4937033;29;20496;-87
2021/07/17 12:30:18;;;;;;;12.95;4.15;;;28.40;93.70;;;;;;4936604;29;20609;-88
2021/07/17 12:32:44;;;;;;;9.30;3.90;;;28.40;93.60;;;;;;4954284;29;20154;-87
2021/07/17 12:35:10;;;;;;;10.40;4.22;;;28.50;93.40;;;;;;4953944;29;20102;-87
2021/07/17 12:37:36;;;;;;;9.85;4.28;;;28.60;93.80;;;;;;4953772;29;20047;-87
2021/07/17 12:40:09;;;;;;;9.88;4.07;;;28.80;93.20;;;;;;4953806;29;20119;-87
2021/07/17 12:42:46;;;;;;;7.78;3.65;;;29.00;93.30;;;;;;4953107;29;20026;-87
2021/07/17 12:45:21;;;;;;;11.35;4.15;;;29.20;92.30;;;;;;4952741;28;20668;-87
2021/07/17 12:47:54;;;;;;;12.98;4.15;;;29.40;92.00;;;;;;4953435;29;20023;-87